North Beach, Maryland
Current Conditions -  °F | °C
As of 4:54 PM on Sunday 25 Jan 2015 (Local Time) from KNAK Reporting Station
Overcast Overcast  
Wind Chill: 41°   Ceiling: 5000
Heat Index: 45°   Visibility: 10mi
Dew Point: 32°   Wind: 7mph
Humidity: 60%   Direction: 160°SSE
Pressure: 29.83"   Gusts: NA
Location:  38.71°N, 76.53°W
Report Text: KNAK 252154Z AUTO 16006KT 10SM OVC050 07/00 A2983 RMK AO2 SLP103 T00720000
Loading
Personal Weather Stations






























Interactive Weather Map New forecast layout! Learn more

10-Day Weather Forecast

Advertisements
Track Severe Weather on mobile